Time;durP1;ratioP1;P1;durP2;ratioP2;P2;SDS_P1;SDS_P2;PMS_P1;PMS_P2;Temp;Humidity;BMP_temperature;BMP_pressure;BME280_temperature;BME280_humidity;BME280_pressure;Samples;Min_cycle;Max_cycle;Signal;HPM_P1;HPM_P2
2021/12/10 00:00:23;;;;;;;144.47;56.27;;;;;;;2.35;100.00;98104.06;4938882;29;20233;-89
2021/12/10 00:02:51;;;;;;;126.20;51.23;;;;;;;4.88;100.00;98516.25;4922847;29;20520;-88
2021/12/10 00:05:23;;;;;;;122.27;51.20;;;;;;;3.54;100.00;98302.97;4907417;29;20969;-90
2021/12/10 00:07:50;;;;;;;136.17;53.50;;;;;;;4.17;100.00;98403.13;4921951;29;20554;-90
2021/12/10 00:10:22;;;;;;;129.93;52.33;;;;;;;2.44;100.00;98091.22;4922101;29;20512;-88
2021/12/10 00:12:51;;;;;;;125.30;50.27;;;;;;;3.53;100.00;98287.91;4938933;29;20406;-88
2021/12/10 00:15:22;;;;;;;124.60;50.47;;;;;;;4.45;100.00;98465.53;4921910;29;20423;-88
2021/12/10 00:17:50;;;;;;;134.20;53.33;;;;;;;1.78;100.00;98002.81;4920402;29;20482;-88
2021/12/10 00:20:17;;;;;;;133.50;51.50;;;;;;;4.70;100.00;98503.63;4919764;29;20799;-88
2021/12/10 00:22:52;;;;;;;149.53;58.40;;;;;;;2.02;100.00;98032.34;4925776;29;20425;-88
2021/12/10 00:25:22;;;;;;;146.00;54.77;;;;;;;3.39;100.00;98239.66;4938024;29;20410;-89
2021/12/10 00:27:49;;;;;;;133.87;53.57;;;;;;;4.65;100.00;98484.09;4943729;29;20446;-89
2021/12/10 00:30:24;;;;;;;151.30;58.00;;;;;;;3.72;100.00;98298.09;4921027;29;20415;-90
2021/12/10 00:33:10;;;;;;;149.17;57.70;;;;;;;3.50;100.00;98246.06;4935133;29;20422;-88
2021/12/10 00:35:37;;;;;;;217.23;78.23;;;;;;;2.33;100.00;98060.69;4919396;29;20442;-88
2021/12/10 00:38:03;;;;;;;125.07;52.17;;;;;;;4.35;100.00;98433.28;4918563;29;20438;-87
2021/12/10 00:40:28;;;;;;;162.13;64.80;;;;;;;2.99;100.00;98211.66;4918436;29;20799;-87
2021/12/10 00:42:55;;;;;;;145.60;57.70;;;;;;;2.55;100.00;98096.03;4919305;29;20257;-88
2021/12/10 00:45:21;;;;;;;126.17;52.67;;;;;;;4.15;100.00;98351.22;4933683;29;20237;-87
2021/12/10 00:47:48;;;;;;;122.77;49.97;;;;;;;4.26;100.00;98380.19;4920188;29;20407;-88
2021/12/10 00:50:18;;;;;;;132.27;52.30;;;;;;;4.49;100.00;98479.09;4936429;29;20185;-87
2021/12/10 00:52:44;;;;;;;122.80;52.13;;;;;;;3.36;100.00;98242.00;4931414;29;20470;-88
2021/12/10 00:55:11;;;;;;;120.17;47.47;;;;;;;4.39;100.00;98445.19;4939610;29;20437;-87
2021/12/10 00:57:38;;;;;;;125.23;50.63;;;;;;;2.37;100.00;98038.47;4936866;29;20453;-87
2021/12/10 01:00:08;;;;;;;112.40;46.80;;;;;;;3.45;100.00;98217.47;4923254;29;20446;-85
2021/12/10 01:02:33;;;;;;;117.33;47.87;;;;;;;2.73;100.00;98119.47;4922726;29;20923;-86
2021/12/10 01:04:59;;;;;;;172.07;72.73;;;;;;;2.50;100.00;98062.44;4934589;29;20419;-87
2021/12/10 01:07:30;;;;;;;118.00;49.53;;;;;;;3.33;100.00;98199.31;4934599;29;20200;-89
2021/12/10 01:09:58;;;;;;;114.33;48.73;;;;;;;1.32;100.00;97868.09;4925294;29;20431;-88
2021/12/10 01:12:30;;;;;;;111.60;48.67;;;;;;;5.11;100.00;98467.25;4918740;29;20472;-89
2021/12/10 01:15:38;;;;;;;112.27;47.57;;;;;;;3.81;100.00;98291.06;4919110;29;20425;-87
2021/12/10 01:28:48;;;;;;;119.77;48.30;;;;;;;1.59;100.00;97910.28;4935063;29;20410;-89
2021/12/10 01:31:14;;;;;;;121.97;49.57;;;;;;;4.26;100.00;98291.69;4918742;29;21092;-89
2021/12/10 01:33:41;;;;;;;116.50;47.40;;;;;;;2.82;100.00;98075.00;4935766;29;20470;-90
2021/12/10 01:36:08;;;;;;;116.77;48.83;;;;;;;3.43;100.00;98213.19;4933531;29;20486;-88
2021/12/10 01:38:42;;;;;;;112.43;49.23;;;;;;;3.00;100.00;98090.06;4918212;29;20418;-89
2021/12/10 01:41:11;;;;;;;121.20;48.83;;;;;;;2.53;100.00;97977.69;4917423;29;20422;-89
2021/12/10 01:43:39;;;;;;;117.03;48.93;;;;;;;1.10;100.00;97743.94;4917164;29;20426;-87
2021/12/10 01:46:11;;;;;;;114.33;49.13;;;;;;;3.46;100.00;98128.28;4917404;29;20938;-87
2021/12/10 01:48:38;;;;;;;119.53;47.70;;;;;;;1.81;100.00;97811.69;4917890;29;20771;-90
2021/12/10 01:51:08;;;;;;;117.47;48.53;;;;;;;5.01;100.00;98363.09;4934436;29;20609;-87
2021/12/10 01:53:36;;;;;;;116.17;48.93;;;;;;;3.66;100.00;98127.63;4919746;29;20505;-90
2021/12/10 01:56:06;;;;;;;111.20;46.50;;;;;;;1.20;100.00;97716.28;4920154;29;20479;-89
2021/12/10 01:58:32;;;;;;;114.47;47.10;;;;;;;5.03;100.00;98366.53;4922068;29;20504;-89
2021/12/10 02:01:06;;;;;;;121.77;49.00;;;;;;;4.82;100.00;98270.25;4936573;29;20524;-91
2021/12/10 02:03:33;;;;;;;112.17;47.33;;;;;;;5.06;100.00;98335.72;4938199;29;20239;-90
2021/12/10 02:05:59;;;;;;;113.40;47.37;;;;;;;2.98;100.00;97941.69;4908557;29;20437;-89
2021/12/10 02:08:25;;;;;;;108.97;44.30;;;;;;;4.23;100.00;98183.84;4944824;29;20417;-89
2021/12/10 02:10:50;;;;;;;109.70;44.63;;;;;;;3.38;100.00;98041.97;4921743;29;20461;-90
2021/12/10 02:13:16;;;;;;;121.57;46.80;;;;;;;2.23;100.00;97867.13;4920444;29;20556;-89
2021/12/10 02:15:43;;;;;;;117.23;45.93;;;;;;;1.15;100.00;97658.69;4940793;29;20182;-87
2021/12/10 02:18:10;;;;;;;115.63;47.40;;;;;;;2.26;100.00;97806.53;4912234;29;20197;-88
2021/12/10 02:20:55;;;;;;;116.40;45.97;;;;;;;1.26;100.00;97629.38;4940705;29;20409;-88
2021/12/10 02:23:22;;;;;;;119.73;42.83;;;;;;;3.17;100.00;97959.28;4939944;29;20453;-89
2021/12/10 02:25:48;;;;;;;129.50;45.57;;;;;;;3.11;100.00;97978.97;4944560;29;20389;-90
2021/12/10 02:28:15;;;;;;;125.07;40.47;;;;;;;1.57;100.00;97784.69;4943055;29;20437;-89
2021/12/10 02:30:42;;;;;;;135.37;49.57;;;;;;;1.18;100.00;97653.88;4925053;29;20831;-89
2021/12/10 02:33:08;;;;;;;126.83;48.00;;;;;;;1.29;100.00;97689.34;4941879;29;20424;-89
2021/12/10 02:35:34;;;;;;;131.80;49.17;;;;;;;1.67;100.00;97774.44;4939996;29;20504;-87
2021/12/10 02:38:00;;;;;;;137.50;48.93;;;;;;;2.97;100.00;97935.81;4943691;29;20406;-88
2021/12/10 02:40:29;;;;;;;139.17;52.23;;;;;;;1.94;100.00;97769.13;4921477;29;20436;-89
2021/12/10 02:42:55;;;;;;;144.73;58.30;;;;;;;1.45;100.00;97659.44;4939954;29;20172;-87
2021/12/10 02:45:23;;;;;;;130.67;52.30;;;;;;;1.82;100.00;97736.06;4938092;29;20410;-87
2021/12/10 02:47:49;;;;;;;116.00;48.23;;;;;;;4.51;100.00;98176.84;4921329;29;20425;-87
2021/12/10 02:50:18;;;;;;;117.40;46.17;;;;;;;2.39;100.00;97838.78;4937388;29;20500;-86
2021/12/10 02:52:44;;;;;;;120.13;48.10;;;;;;;2.15;100.00;97805.13;4920455;29;20424;-89
2021/12/10 02:55:10;;;;;;;116.40;45.77;;;;;;;1.80;100.00;97785.88;4921233;29;20424;-89
2021/12/10 02:57:38;;;;;;;110.40;42.37;;;;;;;0.70;100.00;97662.91;4925331;29;20185;-89
2021/12/10 03:00:16;;;;;;;114.10;45.53;;;;;;;1.78;100.00;97808.28;4943676;29;20425;-89
2021/12/10 03:02:42;;;;;;;101.57;37.20;;;;;;;3.99;100.00;98191.00;4933466;29;20495;-89
2021/12/10 03:05:09;;;;;;;102.10;40.70;;;;;;;1.23;100.00;97733.00;4932618;29;20457;-90
2021/12/10 03:07:37;;;;;;;122.30;46.97;;;;;;;1.22;100.00;97723.81;4930675;29;20173;-91
2021/12/10 03:10:07;;;;;;;117.83;45.53;;;;;;;1.25;100.00;97723.97;4931855;29;20432;-89
2021/12/10 03:12:33;;;;;;;117.13;44.53;;;;;;;1.53;100.00;97765.38;4930513;29;20567;-87
2021/12/10 03:14:59;;;;;;;130.37;49.53;;;;;;;5.18;100.00;98341.34;4943021;29;20425;-89
2021/12/10 03:17:29;;;;;;;119.07;45.97;;;;;;;5.41;100.00;98349.94;4945396;29;20464;-89
2021/12/10 03:19:55;;;;;;;121.30;46.83;;;;;;;4.63;100.00;98150.72;4931196;29;20627;-90
2021/12/10 03:22:22;;;;;;;113.20;44.40;;;;;;;5.55;100.00;98313.81;4931629;29;20420;-89
2021/12/10 03:24:51;;;;;;;115.40;44.80;;;;;;;3.27;100.00;97933.09;4946486;29;20475;-88
2021/12/10 03:27:17;;;;;;;121.30;43.67;;;;;;;4.75;100.00;98198.06;4941766;29;20409;-88
2021/12/10 03:29:44;;;;;;;128.13;45.53;;;;;;;3.89;100.00;98046.16;4961839;29;20401;-89
2021/12/10 03:32:15;;;;;;;129.07;45.80;;;;;;;2.31;100.00;97785.13;4961994;29;20467;-87
2021/12/10 03:34:41;;;;;;;126.27;46.33;;;;;;;3.31;100.00;97914.94;4931833;29;20417;-89
2021/12/10 03:37:07;;;;;;;118.87;42.53;;;;;;;4.75;100.00;98147.94;4927988;29;20496;-88
2021/12/10 03:39:34;;;;;;;120.17;44.33;;;;;;;3.41;100.00;97917.94;4943670;29;20433;-88
2021/12/10 03:42:00;;;;;;;119.50;43.70;;;;;;;5.78;100.00;98319.06;4945829;29;20418;-87
2021/12/10 03:44:27;;;;;;;117.23;43.90;;;;;;;3.93;100.00;98016.34;4926824;29;20436;-89
2021/12/10 03:46:55;;;;;;;121.83;46.13;;;;;;;5.63;100.00;98317.53;4926250;29;20428;-88
2021/12/10 03:49:21;;;;;;;109.30;42.73;;;;;;;4.83;100.00;98141.63;4924255;29;20485;-88
2021/12/10 03:51:47;;;;;;;126.73;45.17;;;;;;;1.99;100.00;97666.28;4924348;29;20468;-88
2021/12/10 03:54:16;;;;;;;125.00;46.23;;;;;;;2.76;100.00;97779.88;4925139;29;20421;-88
2021/12/10 03:56:42;;;;;;;117.93;42.20;;;;;;;3.89;100.00;97996.97;4943899;29;20464;-90
2021/12/10 03:59:12;;;;;;;129.97;47.30;;;;;;;4.17;100.00;98009.13;4926927;29;20428;-89
2021/12/10 04:01:42;;;;;;;141.00;51.33;;;;;;;4.33;100.00;97975.59;4927442;29;20179;-88
2021/12/10 04:04:12;;;;;;;173.27;57.13;;;;;;;4.52;100.00;98038.25;4925444;29;20934;-89
2021/12/10 04:06:40;;;;;;;188.47;65.37;;;;;;;3.58;100.00;97852.06;4942622;29;20418;-88
2021/12/10 04:09:06;;;;;;;139.20;50.03;;;;;;;2.25;100.00;97595.16;4939768;29;20422;-88
2021/12/10 04:11:32;;;;;;;137.03;52.53;;;;;;;4.39;100.00;97928.28;4925030;29;20468;-89
2021/12/10 04:13:59;;;;;;;131.60;50.27;;;;;;;5.00;100.00;98052.94;4930141;29;20425;-89
2021/12/10 04:16:27;;;;;;;129.83;49.80;;;;;;;5.86;100.00;98257.50;4931281;29;20465;-88
2021/12/10 04:18:55;;;;;;;133.30;48.37;;;;;;;2.02;100.00;97590.72;4933376;29;20477;-90
2021/12/10 04:21:22;;;;;;;123.33;48.93;;;;;;;4.44;100.00;97990.31;4954042;29;20409;-89
2021/12/10 04:23:49;;;;;;;153.30;55.07;;;;;;;5.19;100.00;98170.00;4942758;29;20468;-89
2021/12/10 04:26:19;;;;;;;174.00;64.13;;;;;;;2.27;100.00;97641.00;4951659;29;20899;-90
2021/12/10 04:28:44;;;;;;;149.83;55.17;;;;;;;2.10;100.00;97581.94;4948172;29;20428;-89
2021/12/10 04:31:11;;;;;;;160.77;63.40;;;;;;;2.32;100.00;97622.09;4934023;29;20453;-89
2021/12/10 04:33:40;;;;;;;180.33;68.80;;;;;;;4.19;100.00;97995.00;4948320;29;20261;-89
2021/12/10 04:36:07;;;;;;;213.57;91.37;;;;;;;2.04;100.00;97644.03;4933768;29;20910;-89
2021/12/10 04:38:34;;;;;;;161.67;64.43;;;;;;;3.24;100.00;97878.78;4931135;29;20417;-87
2021/12/10 04:41:04;;;;;;;153.60;58.67;;;;;;;2.69;100.00;97759.53;4944947;29;20807;-89
2021/12/10 04:43:31;;;;;;;102.47;39.57;;;;;;;3.67;100.00;97928.31;4929796;29;20424;-87
2021/12/10 04:45:58;;;;;;;133.87;50.60;;;;;;;3.41;100.00;97934.59;4930328;29;20432;-89
2021/12/10 04:48:26;;;;;;;137.50;49.87;;;;;;;2.09;100.00;97675.06;4924565;29;20441;-88
2021/12/10 04:50:52;;;;;;;135.77;50.87;;;;;;;3.34;100.00;97952.59;4948276;29;20980;-89
2021/12/10 04:53:22;;;;;;;122.03;45.60;;;;;;;3.17;100.00;97920.94;4930599;29;20412;-89
2021/12/10 04:55:48;;;;;;;103.07;38.30;;;;;;;1.74;100.00;97676.69;4937714;29;20940;-88
2021/12/10 04:58:14;;;;;;;135.37;46.63;;;;;;;3.58;100.00;98018.81;4930503;29;20413;-89
2021/12/10 05:00:44;;;;;;;177.30;63.43;;;;;;;4.50;100.00;98175.13;4924602;29;20851;-89
2021/12/10 05:03:10;;;;;;;435.10;200.03;;;;;;;2.09;100.00;97715.84;4946826;29;20180;-90
2021/12/10 05:05:38;;;;;;;438.77;187.93;;;;;;;5.06;100.00;98181.09;4928186;29;20479;-90
2021/12/10 05:08:05;;;;;;;212.33;74.10;;;;;;;3.51;100.00;97891.75;4925769;29;20804;-89
2021/12/10 05:10:30;;;;;;;207.23;72.20;;;;;;;3.15;100.00;97865.00;4943791;29;20421;-89
2021/12/10 05:12:56;;;;;;;333.63;136.57;;;;;;;3.50;100.00;97940.03;4924522;29;20401;-92
2021/12/10 05:15:25;;;;;;;242.60;96.20;;;;;;;2.39;100.00;97756.41;4925249;29;20266;-89
2021/12/10 05:17:52;;;;;;;272.60;121.07;;;;;;;2.17;100.00;97719.56;4926642;29;20252;-89
2021/12/10 05:20:23;;;;;;;166.60;63.27;;;;;;;4.13;100.00;98019.75;4923597;29;20453;-88
2021/12/10 05:22:50;;;;;;;170.73;58.83;;;;;;;5.90;100.00;98331.34;4940462;29;20641;-89
2021/12/10 05:25:17;;;;;;;147.13;52.00;;;;;;;5.73;100.00;98320.50;4943699;29;20424;-88
2021/12/10 05:27:43;;;;;;;127.53;45.30;;;;;;;4.36;100.00;98066.78;4933970;29;20421;-88
2021/12/10 05:30:13;;;;;;;142.20;45.00;;;;;;;1.89;100.00;97676.59;4939478;29;20428;-88
2021/12/10 05:32:39;;;;;;;141.87;47.90;;;;;;;3.67;100.00;97960.84;4932571;29;20445;-90
2021/12/10 05:35:06;;;;;;;217.10;71.07;;;;;;;3.57;100.00;97919.56;4923218;29;20421;-89
2021/12/10 05:37:32;;;;;;;172.80;49.63;;;;;;;4.42;100.00;98078.72;4924613;29;20233;-87
2021/12/10 05:39:57;;;;;;;141.33;44.63;;;;;;;4.54;100.00;98132.75;4944005;29;20409;-88
2021/12/10 05:42:23;;;;;;;316.20;95.63;;;;;;;4.62;100.00;98103.03;4939070;29;20420;-88
2021/12/10 05:44:48;;;;;;;308.80;103.70;;;;;;;4.38;100.00;98060.19;4925252;29;20185;-88
2021/12/10 05:47:14;;;;;;;104.47;32.60;;;;;;;4.33;100.00;98090.81;4940387;29;20173;-88
2021/12/10 05:49:40;;;;;;;197.10;64.00;;;;;;;4.07;100.00;98022.84;4936117;29;20192;-88
2021/12/10 05:52:06;;;;;;;189.63;58.70;;;;;;;3.74;100.00;97965.34;4939218;29;20727;-88
2021/12/10 05:54:33;;;;;;;189.53;62.93;;;;;;;2.98;100.00;97851.72;4922335;29;20275;-87
2021/12/10 05:56:58;;;;;;;196.97;60.33;;;;;;;2.89;100.00;97857.13;4919903;29;20805;-87
2021/12/10 05:59:24;;;;;;;188.60;62.17;;;;;;;4.66;100.00;98142.47;4923302;29;20417;-87
2021/12/10 06:01:49;;;;;;;184.47;58.37;;;;;;;3.98;100.00;98012.41;4942801;29;20258;-88
2021/12/10 06:04:16;;;;;;;159.67;46.50;;;;;;;3.84;100.00;98013.41;4926357;29;20240;-89
2021/12/10 06:06:42;;;;;;;238.00;83.60;;;;;;;3.97;100.00;97975.66;4936127;29;20182;-89
2021/12/10 06:09:09;;;;;;;169.30;52.37;;;;;;;4.61;100.00;98174.88;4944369;29;20417;-88
2021/12/10 06:11:36;;;;;;;138.93;46.03;;;;;;;5.88;100.00;98341.31;4941236;29;20279;-87
2021/12/10 06:14:03;;;;;;;217.27;68.53;;;;;;;5.16;100.00;98190.78;4943447;29;20410;-89
2021/12/10 06:16:29;;;;;;;149.00;46.03;;;;;;;4.07;100.00;97952.75;4945989;29;20472;-88
2021/12/10 06:18:56;;;;;;;218.87;63.80;;;;;;;2.21;100.00;97630.72;4949223;29;20469;-88
2021/12/10 06:21:21;;;;;;;162.70;56.17;;;;;;;2.82;100.00;97714.34;4931573;29;20183;-86
2021/12/10 06:23:48;;;;;;;257.40;90.77;;;;;;;4.43;100.00;97993.59;4923823;29;20186;-88
2021/12/10 06:26:19;;;;;;;180.20;56.33;;;;;;;2.39;100.00;97634.06;4922975;29;20182;-89
2021/12/10 06:28:44;;;;;;;230.87;76.00;;;;;;;4.81;100.00;98032.03;4922298;29;20414;-88
2021/12/10 06:31:15;;;;;;;147.63;48.40;;;;;;;3.57;100.00;97857.84;4923602;29;20449;-89
2021/12/10 06:33:43;;;;;;;180.60;55.47;;;;;;;5.34;100.00;98128.88;4927554;29;20417;-89
2021/12/10 06:36:12;;;;;;;178.17;54.83;;;;;;;5.90;100.00;98211.66;4932654;29;20178;-87
2021/12/10 06:38:39;;;;;;;164.47;50.33;;;;;;;4.75;100.00;97962.44;4941839;29;20412;-88
2021/12/10 06:41:04;;;;;;;165.10;53.03;;;;;;;3.65;100.00;97750.63;4944064;29;20174;-89
2021/12/10 06:43:30;;;;;;;156.23;50.30;;;;;;;4.45;100.00;97906.00;4934234;29;20723;-88
2021/12/10 06:45:56;;;;;;;183.87;64.97;;;;;;;4.13;100.00;97781.91;4923480;29;20197;-88
2021/12/10 06:48:25;;;;;;;216.97;82.53;;;;;;;7.25;100.00;98321.94;4923266;29;20169;-87
2021/12/10 06:51:01;;;;;;;427.03;194.30;;;;;;;3.39;100.00;97694.47;4924928;29;20201;-87
2021/12/10 06:53:28;;;;;;;367.03;149.87;;;;;;;5.70;100.00;98076.84;4923566;29;20521;-87
2021/12/10 06:55:54;;;;;;;345.67;131.20;;;;;;;3.26;100.00;97652.22;4915888;29;20219;-88
2021/12/10 06:58:23;;;;;;;351.33;136.53;;;;;;;4.97;100.00;97921.59;4943390;29;20557;-89
2021/12/10 07:00:55;;;;;;;304.20;119.13;;;;;;;5.15;100.00;97898.13;4928804;29;20185;-88
2021/12/10 07:03:23;;;;;;;248.23;96.27;;;;;;;7.67;100.00;98284.13;4943805;29;20256;-88
2021/12/10 07:05:51;;;;;;;241.57;94.90;;;;;;;7.18;100.00;98217.66;4935096;29;20242;-89
2021/12/10 07:08:17;;;;;;;213.43;82.13;;;;;;;7.76;100.00;98308.78;4928214;29;20185;-89
2021/12/10 07:10:44;;;;;;;259.90;115.03;;;;;;;4.99;100.00;97839.75;4942625;29;20193;-88
2021/12/10 07:13:12;;;;;;;336.13;137.23;;;;;;;7.62;100.00;98273.03;4924835;29;20236;-88
2021/12/10 07:15:40;;;;;;;372.17;154.17;;;;;;;8.00;100.00;98301.25;4933854;29;20213;-90
2021/12/10 07:18:07;;;;;;;321.90;134.03;;;;;;;6.81;100.00;98039.31;4922190;29;20229;-87
2021/12/10 07:20:33;;;;;;;318.67;133.63;;;;;;;5.14;100.00;97738.38;4924320;29;20174;-88
2021/12/10 07:22:59;;;;;;;205.50;80.03;;;;;;;6.46;100.00;98035.53;4931875;29;20174;-89
2021/12/10 07:25:27;;;;;;;134.70;44.73;;;;;;;4.97;100.00;97862.25;4924985;29;20189;-90
2021/12/10 07:27:53;;;;;;;118.03;39.37;;;;;;;6.01;100.00;98046.34;4955330;29;20181;-90
2021/12/10 07:30:42;;;;;;;114.30;40.00;;;;;;;7.75;100.00;98333.94;4932635;29;20616;-90
2021/12/10 07:33:08;;;;;;;110.53;35.77;;;;;;;5.75;100.00;98015.13;4905457;29;20297;-90
2021/12/10 07:35:35;;;;;;;118.93;41.43;;;;;;;7.84;100.00;98352.75;4904973;29;20234;-88
2021/12/10 07:38:00;;;;;;;115.30;37.63;;;;;;;7.94;100.00;98354.81;4909961;29;20198;-88
2021/12/10 07:40:29;;;;;;;383.40;182.50;;;;;;;6.58;100.00;98112.19;4916039;29;20207;-88
2021/12/10 07:42:55;;;;;;;181.13;72.43;;;;;;;7.16;100.00;98168.06;4897201;29;20202;-89
2021/12/10 07:45:24;;;;;;;116.77;41.57;;;;;;;8.56;100.00;98384.84;4910526;29;20217;-87
2021/12/10 07:47:54;;;;;;;98.40;36.53;;;;;;;5.59;100.00;97906.53;4890028;29;20293;-89
2021/12/10 07:50:26;;;;;;;250.13;102.23;;;;;;;5.19;100.00;97877.34;4903345;29;20194;-88
2021/12/10 07:52:55;;;;;;;164.03;71.00;;;;;;;6.80;100.00;98124.78;4885297;29;20206;-90
2021/12/10 07:55:24;;;;;;;130.83;53.37;;;;;;;7.09;100.00;98078.91;4888473;29;20198;-87
2021/12/10 07:57:51;;;;;;;490.73;150.97;;;;;;;8.06;100.00;98188.06;4922234;29;20738;-90
2021/12/10 08:00:18;;;;;;;210.60;102.37;;;;;;;7.42;100.00;98033.91;4903183;29;20177;-87
2021/12/10 08:02:44;;;;;;;91.93;36.77;;;;;;;8.01;100.00;98152.66;4903991;29;20246;-87
2021/12/10 08:05:11;;;;;;;120.43;51.10;;;;;;;8.96;100.00;98292.81;4936860;29;20280;-89
2021/12/10 08:07:37;;;;;;;149.20;69.53;;;;;;;8.73;100.00;98221.44;4941612;29;20181;-88
2021/12/10 08:10:06;;;;;;;108.13;46.53;;;;;;;9.21;100.00;98368.50;4939224;29;20645;-87
2021/12/10 08:12:32;;;;;;;92.50;41.87;;;;;;;8.25;100.00;98166.06;4944070;29;20591;-90
2021/12/10 08:14:58;;;;;;;80.43;34.53;;;;;;;7.93;100.00;98085.16;4931825;29;20181;-89
2021/12/10 08:17:26;;;;;;;72.80;32.27;;;;;;;7.29;100.00;98007.50;4942165;29;20332;-87
2021/12/10 08:19:53;;;;;;;73.33;33.60;;;;;;;8.01;100.00;98074.53;4944415;29;20197;-88
2021/12/10 08:22:20;;;;;;;72.20;31.43;;;;;;;10.32;100.00;98365.19;4940951;29;20174;-88
2021/12/10 08:24:47;;;;;;;71.50;31.87;;;;;;;10.07;100.00;98359.41;4936771;28;20201;-87
2021/12/10 08:27:13;;;;;;;89.27;41.00;;;;;;;9.22;100.00;98143.00;4938618;29;20177;-86
2021/12/10 08:29:42;;;;;;;98.47;46.77;;;;;;;10.16;100.00;98264.44;4922806;29;20631;-87
2021/12/10 08:32:08;;;;;;;79.10;43.53;;;;;;;9.78;100.00;98167.31;4941493;29;20189;-87
2021/12/10 08:34:34;;;;;;;76.93;40.67;;;;;;;10.40;100.00;98161.34;4942330;29;20562;-87
2021/12/10 08:37:00;;;;;;;54.63;26.93;;;;;;;11.21;100.00;98373.47;4922213;29;20199;-87
2021/12/10 08:39:25;;;;;;;55.53;28.53;;;;;;;9.43;100.00;98156.22;4937236;29;20188;-85
2021/12/10 08:41:56;;;;;;;120.10;63.00;;;;;;;10.75;100.00;98373.13;4941035;29;20157;-87
2021/12/10 08:44:23;;;;;;;60.47;31.57;;;;;;;9.79;100.00;98110.88;4930711;29;20282;-88
2021/12/10 08:46:50;;;;;;;52.33;26.77;;;;;;;8.88;100.00;97879.59;4931153;29;20178;-87
2021/12/10 08:49:17;;;;;;;75.57;36.07;;;;;;;10.05;100.00;98047.50;4928517;29;20193;-87
2021/12/10 08:51:50;;;;;;;49.50;25.10;;;;;;;9.16;100.00;97951.81;4932290;29;20210;-88
2021/12/10 08:54:17;;;;;;;52.47;26.63;;;;;;;11.27;100.00;98330.56;4917511;29;20193;-88
2021/12/10 08:56:46;;;;;;;65.57;35.10;;;;;;;12.44;100.00;98401.63;4925165;29;20245;-87
2021/12/10 08:59:12;;;;;;;59.03;33.30;;;;;;;10.08;100.00;97870.63;4935866;29;20676;-86
2021/12/10 09:01:42;;;;;;;67.30;35.97;;;;;;;9.85;100.00;97886.97;4940808;29;20161;-87
2021/12/10 09:04:09;;;;;;;49.67;26.03;;;;;;;11.44;100.00;98110.50;4925288;29;20622;-87
2021/12/10 09:06:39;;;;;;;47.40;25.53;;;;;;;10.65;100.00;97863.38;4940858;29;20166;-88
2021/12/10 09:09:07;;;;;;;63.93;36.83;;;;;;;10.82;100.00;97818.13;4940062;29;20267;-87
2021/12/10 09:11:33;;;;;;;40.63;22.13;;;;;;;14.02;99.39;98336.53;4939912;29;20204;-87
2021/12/10 09:13:59;;;;;;;35.57;19.90;;;;;;;13.94;98.35;98335.56;4937358;29;20185;-86
2021/12/10 09:16:28;;;;;;;43.07;22.93;;;;;;;14.20;98.40;98344.41;4935309;29;20247;-87
2021/12/10 09:19:02;;;;;;;36.70;20.40;;;;;;;10.89;99.68;97819.06;4943299;29;20213;-87
2021/12/10 09:21:31;;;;;;;33.43;18.63;;;;;;;10.88;99.41;97808.06;4937094;29;20173;-87
2021/12/10 09:24:03;;;;;;;70.43;41.67;;;;;;;11.44;100.00;97993.06;4936678;29;20173;-87
2021/12/10 09:26:31;;;;;;;40.37;23.63;;;;;;;12.41;100.00;98247.59;4937858;29;20204;-86
2021/12/10 09:28:58;;;;;;;55.57;30.97;;;;;;;11.71;100.00;98138.94;4941898;29;20268;-86
2021/12/10 09:31:24;;;;;;;82.73;48.07;;;;;;;10.31;100.00;97880.38;4921503;29;20206;-88
2021/12/10 09:33:55;;;;;;;46.17;24.63;;;;;;;10.55;100.00;97818.47;4924621;29;20189;-87
2021/12/10 09:36:21;;;;;;;52.70;31.93;;;;;;;12.57;100.00;98148.88;4938478;29;20201;-87
2021/12/10 09:38:48;;;;;;;32.70;18.23;;;;;;;12.70;99.84;98173.59;4937666;29;20189;-87
2021/12/10 09:41:16;;;;;;;32.30;17.43;;;;;;;13.15;100.00;98221.75;4921455;29;20239;-88
2021/12/10 09:43:42;;;;;;;27.27;15.70;;;;;;;13.04;99.47;98152.97;4938359;29;20196;-87
2021/12/10 09:46:09;;;;;;;28.40;15.90;;;;;;;13.97;98.81;98308.47;4940473;29;20177;-89
2021/12/10 09:48:35;;;;;;;30.80;16.47;;;;;;;11.10;97.26;97814.34;4942004;29;20189;-87
2021/12/10 09:51:12;;;;;;;33.27;16.70;;;;;;;11.61;97.45;97809.22;4926419;29;20236;-86
2021/12/10 09:53:43;;;;;;;32.87;17.97;;;;;;;11.87;97.20;97896.63;4954057;29;20213;-87
2021/12/10 09:56:14;;;;;;;26.30;15.27;;;;;;;13.96;99.07;98331.34;4953390;29;20228;-87
2021/12/10 09:58:40;;;;;;;30.87;16.27;;;;;;;11.07;100.00;97880.97;4942196;29;20190;-87
2021/12/10 10:01:19;;;;;;;63.70;35.97;;;;;;;12.10;100.00;98122.72;4907649;29;20173;-87
2021/12/10 10:03:49;;;;;;;32.50;17.27;;;;;;;11.96;100.00;98211.22;4883329;28;20208;-88
2021/12/10 10:06:18;;;;;;;30.67;16.27;;;;;;;12.90;100.00;98319.53;4882173;29;20223;-89
2021/12/10 10:08:45;;;;;;;32.83;17.57;;;;;;;12.71;100.00;98254.91;4882011;29;20243;-88
2021/12/10 10:11:18;;;;;;;43.73;24.77;;;;;;;13.18;100.00;98319.22;4898156;29;20202;-89
2021/12/10 10:13:48;;;;;;;38.17;21.63;;;;;;;11.99;100.00;98158.03;4896193;29;20258;-88
2021/12/10 10:16:15;;;;;;;34.33;19.00;;;;;;;13.33;100.00;98365.19;4900550;29;20181;-87
2021/12/10 10:18:43;;;;;;;35.73;19.67;;;;;;;11.74;100.00;98059.53;4902333;29;20183;-90
2021/12/10 10:21:14;;;;;;;44.10;28.20;;;;;;;13.33;100.00;98332.16;4900464;29;20379;-88
2021/12/10 10:23:44;;;;;;;68.37;41.03;;;;;;;9.31;100.00;97694.66;4900140;29;20326;-89
2021/12/10 10:26:21;;;;;;;63.07;38.20;;;;;;;11.39;100.00;98003.13;4900743;29;20190;-86
2021/12/10 10:28:47;;;;;;;51.97;31.00;;;;;;;10.59;100.00;97825.28;4891200;29;20211;-87
2021/12/10 10:31:19;;;;;;;36.70;20.13;;;;;;;10.07;100.00;97696.16;4893171;29;20218;-88
2021/12/10 10:33:48;;;;;;;41.13;22.47;;;;;;;12.65;100.00;98099.91;4893479;29;20210;-87
2021/12/10 10:36:21;;;;;;;61.73;33.73;;;;;;;12.36;99.43;98027.59;4893652;29;20178;-88
2021/12/10 10:38:50;;;;;;;52.47;34.30;;;;;;;12.12;98.47;97969.72;4906102;29;20182;-90
2021/12/10 10:41:19;;;;;;;34.97;19.60;;;;;;;10.98;99.16;97827.66;4890178;29;20270;-89
2021/12/10 10:43:45;;;;;;;35.27;20.73;;;;;;;12.54;100.00;98085.34;4909894;29;20178;-90
2021/12/10 10:46:11;;;;;;;37.90;20.57;;;;;;;14.07;100.00;98258.53;4921044;29;20210;-88
2021/12/10 10:48:40;;;;;;;40.03;22.70;;;;;;;12.42;99.28;97914.31;4922500;29;20625;-89
2021/12/10 10:51:12;;;;;;;38.67;21.63;;;;;;;13.23;98.30;98032.97;4905644;29;20247;-89
2021/12/10 10:53:48;;;;;;;34.40;19.30;;;;;;;10.61;97.16;97621.22;4900828;29;20179;-86
2021/12/10 10:56:18;;;;;;;35.13;20.37;;;;;;;11.63;97.68;97777.13;4912883;29;20214;-88
2021/12/10 10:58:50;;;;;;;54.73;31.03;;;;;;;10.55;98.32;97617.75;4934919;29;20201;-89
2021/12/10 11:01:35;;;;;;;44.70;25.00;;;;;;;14.08;99.50;98227.19;4955637;29;20177;-87
2021/12/10 11:04:13;;;;;;;54.17;30.87;;;;;;;11.14;100.00;97723.25;4940408;29;20316;-90
2021/12/10 11:06:46;;;;;;;57.63;28.73;;;;;;;10.74;100.00;97753.00;4927223;29;20173;-86
2021/12/10 11:09:25;;;;;;;46.90;25.43;;;;;;;11.72;100.00;97919.25;4942129;29;20182;-89
2021/12/10 11:11:55;;;;;;;49.53;27.47;;;;;;;12.11;100.00;97893.59;4922139;29;20237;-88
2021/12/10 11:14:24;;;;;;;46.97;28.17;;;;;;;11.15;100.00;97697.09;4921021;29;20760;-91
2021/12/10 11:16:55;;;;;;;47.77;26.53;;;;;;;13.97;100.00;98153.28;4920789;29;20321;-87
2021/12/10 11:19:28;;;;;;;50.43;26.73;;;;;;;14.67;99.80;98218.44;4946075;29;20701;-89
2021/12/10 11:22:18;;;;;;;45.73;25.27;;;;;;;14.68;98.13;98229.50;4924194;29;20184;-88
2021/12/10 11:24:55;;;;;;;71.90;39.60;;;;;;;12.69;99.70;97890.91;4924641;29;20193;-89